createdAt,value
2016-10-20T00:00:09.061Z,8.53
2016-10-20T00:01:09.032Z,8.58
2016-10-20T00:02:09.041Z,8.58
2016-10-20T00:03:08.973Z,8.56
2016-10-20T00:04:08.943Z,8.63
2016-10-20T00:05:08.912Z,8.61
2016-10-20T00:06:08.886Z,8.52
2016-10-20T00:07:08.896Z,8.56
2016-10-20T00:08:08.828Z,8.6
2016-10-20T00:09:08.800Z,8.61
2016-10-20T00:10:08.764Z,8.55
2016-10-20T00:11:08.739Z,8.58
2016-10-20T00:12:08.707Z,8.56
2016-10-20T00:13:08.683Z,8.55
2016-10-20T00:14:08.656Z,8.55
2016-10-20T00:15:08.636Z,8.6
2016-10-20T00:16:08.588Z,8.61
2016-10-20T00:17:08.577Z,8.64
2016-10-20T00:18:08.533Z,8.67
2016-10-20T00:19:08.505Z,8.61
2016-10-20T00:20:08.479Z,8.63
2016-10-20T00:21:08.497Z,8.64
2016-10-20T00:22:08.421Z,8.6
2016-10-20T00:23:08.391Z,8.66
2016-10-20T00:24:08.366Z,8.64
2016-10-20T00:25:08.335Z,8.71
2016-10-20T00:26:08.304Z,8.63
2016-10-20T00:27:08.276Z,8.61
2016-10-20T00:28:08.248Z,8.63
2016-10-20T00:29:08.220Z,8.69
2016-10-20T00:30:08.484Z,8.58
2016-10-20T00:31:08.162Z,8.61
2016-10-20T00:32:08.131Z,8.7
2016-10-20T00:33:08.102Z,8.69
2016-10-20T00:34:08.076Z,8.67
2016-10-20T00:35:08.083Z,8.63
2016-10-20T00:36:08.016Z,8.58
2016-10-20T00:37:07.993Z,8.6
2016-10-20T00:38:07.961Z,8.73
2016-10-20T00:39:07.928Z,8.7
2016-10-20T00:40:07.902Z,8.73
2016-10-20T00:41:08.246Z,8.7
2016-10-20T00:42:07.850Z,8.7
2016-10-20T00:43:07.816Z,8.64
2016-10-20T00:44:07.789Z,8.69
2016-10-20T00:45:07.756Z,8.66
2016-10-20T00:46:07.730Z,8.74
2016-10-20T00:47:07.700Z,8.73
2016-10-20T00:48:07.672Z,8.71
2016-10-20T00:49:07.650Z,8.73
2016-10-20T00:50:07.616Z,8.85
2016-10-20T00:51:07.584Z,8.74
2016-10-20T00:52:07.554Z,8.81
2016-10-20T00:53:07.529Z,8.78
2016-10-20T00:54:07.500Z,8.76
2016-10-20T00:55:07.474Z,8.85
2016-10-20T00:56:07.441Z,8.79
2016-10-20T00:57:07.414Z,8.73
2016-10-20T00:58:07.381Z,8.82
2016-10-20T00:59:07.356Z,8.73
2016-10-20T01:00:07.328Z,8.76
2016-10-20T01:01:07.550Z,8.81
2016-10-20T01:02:07.271Z,8.79
2016-10-20T01:03:07.237Z,8.85
2016-10-20T01:04:07.217Z,8.82
2016-10-20T01:05:07.184Z,8.78
2016-10-20T01:06:07.155Z,8.85
2016-10-20T01:07:07.128Z,8.92
2016-10-20T01:08:07.107Z,8.88
2016-10-20T01:09:07.071Z,8.81
2016-10-20T01:10:07.045Z,8.85
2016-10-20T01:11:07.018Z,8.79
2016-10-20T01:12:06.987Z,8.81
2016-10-20T01:13:06.954Z,8.87
2016-10-20T01:14:06.927Z,8.81
2016-10-20T01:15:06.901Z,8.92
2016-10-20T01:16:06.872Z,8.84
2016-10-20T01:17:06.843Z,8.84
2016-10-20T01:18:06.810Z,8.82
2016-10-20T01:19:06.781Z,8.84
2016-10-20T01:20:06.756Z,8.85
2016-10-20T01:21:06.728Z,8.92
2016-10-20T01:22:06.696Z,8.89
2016-10-20T01:23:06.669Z,8.84
2016-10-20T01:24:06.640Z,8.87
2016-10-20T01:25:06.612Z,8.85
2016-10-20T01:26:06.582Z,8.94
2016-10-20T01:27:06.557Z,8.89
2016-10-20T01:28:06.531Z,8.88
2016-10-20T01:29:06.499Z,8.94
2016-10-20T01:30:06.470Z,8.91
2016-10-20T01:31:06.471Z,8.89
2016-10-20T01:32:06.412Z,8.92
2016-10-20T01:33:06.387Z,8.88
2016-10-20T01:34:06.353Z,8.89
2016-10-20T01:35:06.331Z,9
2016-10-20T01:36:06.300Z,8.92
2016-10-20T01:37:06.269Z,8.94
2016-10-20T01:38:06.244Z,8.92
2016-10-20T01:39:06.215Z,8.97
2016-10-20T01:40:06.182Z,9.04
2016-10-20T01:41:06.157Z,8.95
2016-10-20T01:42:06.139Z,9.02
2016-10-20T01:43:06.099Z,8.97
2016-10-20T01:44:06.082Z,8.99
2016-10-20T01:45:06.046Z,9.03
2016-10-20T01:46:06.044Z,8.97
2016-10-20T01:47:05.985Z,8.99
2016-10-20T01:48:05.958Z,8.99
2016-10-20T01:49:05.926Z,9
2016-10-20T01:50:05.905Z,9.02
2016-10-20T01:51:06.175Z,9.02
2016-10-20T01:52:05.843Z,9.03
2016-10-20T01:53:05.853Z,8.99
2016-10-20T01:54:05.785Z,9
2016-10-20T01:55:05.760Z,9
2016-10-20T01:56:05.729Z,9.04
2016-10-20T01:57:05.700Z,9
2016-10-20T01:58:05.673Z,9.06
2016-10-20T01:59:05.645Z,9.03
2016-10-20T02:00:05.615Z,8.99
2016-10-20T02:01:05.582Z,9.02
2016-10-20T02:02:05.567Z,8.97
2016-10-20T02:03:05.533Z,8.97
2016-10-20T02:04:05.513Z,8.95
2016-10-20T02:05:05.466Z,8.89
2016-10-20T02:06:05.444Z,8.94
2016-10-20T02:07:05.714Z,9.03
2016-10-20T02:08:05.384Z,9.04
2016-10-20T02:09:05.356Z,8.94
2016-10-20T02:10:05.332Z,8.97
2016-10-20T02:11:05.299Z,9.03
2016-10-20T02:12:05.274Z,9.02
2016-10-20T02:13:05.247Z,9
2016-10-20T02:14:05.212Z,8.97
2016-10-20T02:15:05.187Z,8.97
2016-10-20T02:16:05.159Z,9.02
2016-10-20T02:17:05.131Z,9.03
2016-10-20T02:18:05.300Z,8.97
2016-10-20T02:19:05.080Z,9.02
2016-10-20T02:20:05.050Z,9.03
2016-10-20T02:21:05.015Z,8.95
2016-10-20T02:22:04.987Z,8.95
2016-10-20T02:23:04.960Z,8.97
2016-10-20T02:24:04.933Z,9.03
2016-10-20T02:25:04.904Z,8.95
2016-10-20T02:26:04.880Z,9.03
2016-10-20T02:27:04.844Z,9.02
2016-10-20T02:28:04.818Z,9.08
2016-10-20T02:29:05.084Z,8.99
2016-10-20T02:30:04.765Z,9.02
2016-10-20T02:31:04.731Z,8.99
2016-10-20T02:32:04.711Z,9.02
2016-10-20T02:33:04.684Z,9.03
2016-10-20T02:34:04.649Z,9
2016-10-20T02:35:04.652Z,8.99
2016-10-20T02:36:04.588Z,9
2016-10-20T02:37:04.567Z,9.03
2016-10-20T02:38:04.534Z,9.02
2016-10-20T02:39:04.501Z,9.02
2016-10-20T02:40:04.476Z,9.02
2016-10-20T02:41:04.449Z,8.97
2016-10-20T02:42:04.416Z,8.89
2016-10-20T02:43:04.391Z,9
2016-10-20T02:44:04.362Z,9.02
2016-10-20T02:45:04.375Z,8.97
2016-10-20T02:46:04.305Z,9
2016-10-20T02:47:04.275Z,9.02
2016-10-20T02:48:04.251Z,9
2016-10-20T02:49:04.220Z,8.95
2016-10-20T02:50:04.195Z,9.02
2016-10-20T02:51:04.191Z,8.97
2016-10-20T02:52:04.134Z,8.92
2016-10-20T02:53:04.109Z,8.92
2016-10-20T02:54:04.083Z,8.95
2016-10-20T02:55:04.051Z,8.94
2016-10-20T02:56:04.019Z,9.02
2016-10-20T02:57:04.002Z,8.91
2016-10-20T02:58:03.969Z,8.89
2016-10-20T02:59:03.935Z,8.97
2016-10-20T03:00:03.910Z,8.92
2016-10-20T03:01:03.880Z,9
2016-10-20T03:02:03.862Z,8.89
2016-10-20T03:03:03.823Z,8.92
2016-10-20T03:04:03.791Z,8.91
2016-10-20T03:05:03.770Z,8.85
2016-10-20T03:06:03.775Z,8.87
2016-10-20T03:07:03.716Z,8.88
2016-10-20T03:08:03.676Z,8.88
2016-10-20T03:09:03.654Z,8.88
2016-10-20T03:10:03.925Z,8.94
2016-10-20T03:11:03.594Z,8.87
2016-10-20T03:12:03.568Z,8.92
2016-10-20T03:13:03.540Z,8.92
2016-10-20T03:14:03.508Z,8.94
2016-10-20T03:15:03.490Z,8.89
2016-10-20T03:16:03.452Z,8.94
2016-10-20T03:17:03.425Z,9.03
2016-10-20T03:18:03.692Z,8.97
2016-10-20T03:19:03.373Z,8.97
2016-10-20T03:20:03.338Z,8.87
2016-10-20T03:21:03.310Z,8.89
2016-10-20T03:22:03.576Z,8.94
2016-10-20T03:23:03.249Z,8.92
2016-10-20T03:24:03.235Z,8.92
2016-10-20T03:25:03.494Z,9.03
2016-10-20T03:26:03.169Z,8.92
2016-10-20T03:27:03.141Z,8.95
2016-10-20T03:28:03.111Z,8.89
2016-10-20T03:29:03.381Z,8.99
2016-10-20T03:30:03.054Z,8.92
2016-10-20T03:31:03.039Z,8.92
2016-10-20T03:32:02.999Z,8.88
2016-10-20T03:33:02.975Z,8.89
2016-10-20T03:34:02.947Z,8.95
2016-10-20T03:35:02.910Z,8.92
2016-10-20T03:36:02.885Z,8.97
2016-10-20T03:37:02.857Z,8.88
2016-10-20T03:38:02.828Z,8.91
2016-10-20T03:39:02.797Z,8.95
2016-10-20T03:40:02.769Z,8.92
2016-10-20T03:41:02.744Z,8.85
2016-10-20T03:42:02.763Z,8.88
2016-10-20T03:43:02.687Z,9
2016-10-20T03:44:02.656Z,8.89
2016-10-20T03:45:02.629Z,8.92
2016-10-20T03:46:02.639Z,8.95
2016-10-20T03:47:02.569Z,8.92
2016-10-20T03:48:02.538Z,8.91
2016-10-20T03:49:02.806Z,8.85
2016-10-20T03:50:02.485Z,8.88
2016-10-20T03:51:02.459Z,8.88
2016-10-20T03:52:02.432Z,8.94
2016-10-20T03:53:02.397Z,8.97
2016-10-20T03:54:02.375Z,8.95
2016-10-20T03:55:02.342Z,8.99
2016-10-20T03:56:02.320Z,8.92
2016-10-20T03:57:02.288Z,8.92
2016-10-20T03:58:02.265Z,8.84
2016-10-20T03:59:02.232Z,8.92
2016-10-20T04:00:02.200Z,9.03
2016-10-20T04:01:02.174Z,8.99
2016-10-20T04:02:02.141Z,8.91
2016-10-20T04:03:02.115Z,9.03
2016-10-20T04:04:02.084Z,8.97
2016-10-20T04:05:02.060Z,8.97
2016-10-20T04:06:02.037Z,8.94
2016-10-20T04:07:02.002Z,9.03
2016-10-20T04:08:01.974Z,9.04
2016-10-20T04:09:01.943Z,9.02
2016-10-20T04:10:01.916Z,9.02
2016-10-20T04:11:01.920Z,8.97
2016-10-20T04:12:01.857Z,9.04
2016-10-20T04:13:01.833Z,8.97
2016-10-20T04:14:01.802Z,8.89
2016-10-20T04:15:01.772Z,8.97
2016-10-20T04:16:01.745Z,8.99
2016-10-20T04:17:01.716Z,8.95
2016-10-20T04:18:01.691Z,8.95
2016-10-20T04:19:01.657Z,9.02
2016-10-20T04:20:01.632Z,8.84
2016-10-20T04:21:01.600Z,8.99
2016-10-20T04:22:01.577Z,8.92
2016-10-20T04:23:01.545Z,8.94
2016-10-20T04:24:01.516Z,8.89
2016-10-20T04:25:01.488Z,8.92
2016-10-20T04:26:01.456Z,8.91
2016-10-20T04:27:01.430Z,9.03
2016-10-20T04:28:01.401Z,9.02
2016-10-20T04:29:01.373Z,8.87
2016-10-20T04:30:01.350Z,9.03
2016-10-20T04:31:01.320Z,8.89
2016-10-20T04:32:01.288Z,8.92
2016-10-20T04:33:01.265Z,8.95
2016-10-20T04:34:01.233Z,8.97
2016-10-20T04:35:01.204Z,8.89
2016-10-20T04:36:01.173Z,8.94
2016-10-20T04:37:01.146Z,9.03
2016-10-20T04:38:01.120Z,9.06
2016-10-20T04:39:01.090Z,9.02
2016-10-20T04:40:01.062Z,9.02
2016-10-20T04:41:01.033Z,9
2016-10-20T04:42:01.003Z,9.08
2016-10-20T04:43:00.969Z,9.08
2016-10-20T04:44:00.945Z,9.06
2016-10-20T04:45:00.919Z,9.06
2016-10-20T04:46:00.888Z,9.08
2016-10-20T04:47:00.889Z,9.13
2016-10-20T04:48:00.831Z,9.11
2016-10-20T04:49:00.803Z,9.13
2016-10-20T04:50:00.773Z,9.1
2016-10-20T04:51:00.757Z,9.13
2016-10-20T04:52:00.720Z,9.06
2016-10-20T04:53:00.690Z,9.11
2016-10-20T04:54:00.674Z,9.11
2016-10-20T04:55:00.632Z,9.06
2016-10-20T04:56:00.600Z,9.1
2016-10-20T04:57:00.575Z,9.11
2016-10-20T04:58:00.548Z,9.13
2016-10-20T04:59:00.519Z,9.18
2016-10-20T05:00:00.493Z,9.16
2016-10-20T05:01:00.460Z,9.14
2016-10-20T05:02:00.433Z,9.14
2016-10-20T05:03:00.409Z,9.14
2016-10-20T05:04:00.378Z,9.11
2016-10-20T05:05:00.346Z,9.13
2016-10-20T05:06:00.318Z,9.11
2016-10-20T05:07:00.287Z,9.1
2016-10-20T05:08:00.264Z,9.13
2016-10-20T05:09:00.233Z,9.06
2016-10-20T05:10:00.206Z,9.04
2016-10-20T05:11:00.179Z,9
2016-10-20T05:12:00.153Z,8.95
2016-10-20T05:13:00.116Z,8.92
2016-10-20T05:14:00.092Z,8.95
2016-10-20T05:15:00.063Z,8.94
2016-10-20T05:16:00.031Z,9
2016-10-20T05:17:00.008Z,8.94
2016-10-20T05:17:59.979Z,8.88
2016-10-20T05:18:59.960Z,9.04
2016-10-20T05:19:59.921Z,8.99
2016-10-20T05:20:59.892Z,8.99
2016-10-20T05:21:59.863Z,8.94
2016-10-20T05:22:59.837Z,9.03
2016-10-20T05:23:59.809Z,8.97
2016-10-20T05:24:59.783Z,8.97
2016-10-20T05:25:59.750Z,9.02
2016-10-20T05:26:59.720Z,9.06
2016-10-20T05:27:59.691Z,9.08
2016-10-20T05:28:59.702Z,9.03
2016-10-20T05:29:59.636Z,9.18
2016-10-20T05:30:59.613Z,9.13
2016-10-20T05:31:59.583Z,9.16
2016-10-20T05:32:59.550Z,9.16
2016-10-20T05:33:59.523Z,9.19
2016-10-20T05:34:59.491Z,9.16
2016-10-20T05:35:59.468Z,9.1
2016-10-20T05:36:59.436Z,9.18
2016-10-20T05:37:59.410Z,9.18
2016-10-20T05:38:59.384Z,9.16
2016-10-20T05:39:59.348Z,9.21
2016-10-20T05:40:59.326Z,9.16
2016-10-20T05:41:59.296Z,9.11
2016-10-20T05:42:59.538Z,9.11
2016-10-20T05:43:59.242Z,9.14
2016-10-20T05:44:59.214Z,9.18
2016-10-20T05:45:59.181Z,9.06
2016-10-20T05:46:59.155Z,9.06
2016-10-20T05:47:59.122Z,9.16
2016-10-20T05:48:59.093Z,9.04
2016-10-20T05:49:59.071Z,9.08
2016-10-20T05:50:59.045Z,9.1
2016-10-20T05:51:59.016Z,9.14
2016-10-20T05:52:58.979Z,9.14
2016-10-20T05:53:58.952Z,9.18
2016-10-20T05:54:58.934Z,9.13
2016-10-20T05:55:58.893Z,9.16
2016-10-20T05:56:58.867Z,9.1
2016-10-20T05:57:58.842Z,9.18
2016-10-20T05:58:58.811Z,9.16
2016-10-20T05:59:58.782Z,9.16
2016-10-20T06:00:58.753Z,9.14
2016-10-20T06:01:58.723Z,9.11
2016-10-20T06:02:58.700Z,9.13
2016-10-20T06:03:58.665Z,9.06
2016-10-20T06:04:58.681Z,9.02
2016-10-20T06:05:58.610Z,9.04
2016-10-20T06:06:59.486Z,9.11
2016-10-20T06:07:58.564Z,8.95
2016-10-20T06:08:58.565Z,8.97
2016-10-20T06:09:58.499Z,8.99
2016-10-20T06:10:58.469Z,9
2016-10-20T06:11:58.440Z,8.99
2016-10-20T06:12:58.413Z,8.94
2016-10-20T06:13:58.389Z,8.99
2016-10-20T06:14:58.359Z,9.02
2016-10-20T06:15:58.322Z,8.87
2016-10-20T06:16:58.298Z,8.91
2016-10-20T06:17:58.275Z,9.02
2016-10-20T06:18:58.239Z,8.92
2016-10-20T06:19:58.209Z,8.95
2016-10-20T06:20:58.179Z,8.89
2016-10-20T06:21:58.159Z,8.87
2016-10-20T06:22:58.125Z,8.92
2016-10-20T06:23:58.104Z,8.89
2016-10-20T06:24:58.069Z,8.94
2016-10-20T06:25:58.042Z,8.94
2016-10-20T06:26:58.010Z,8.89
2016-10-20T06:27:57.988Z,8.92
2016-10-20T06:28:57.972Z,8.91
2016-10-20T06:29:57.924Z,8.89
2016-10-20T06:30:57.900Z,8.97
2016-10-20T06:31:57.867Z,8.95
2016-10-20T06:32:57.839Z,8.95
2016-10-20T06:33:57.816Z,8.99
2016-10-20T06:34:57.782Z,8.92
2016-10-20T06:35:57.762Z,9
2016-10-20T06:36:57.726Z,8.95
2016-10-20T06:37:57.699Z,8.95
2016-10-20T06:38:57.667Z,8.92
2016-10-20T06:39:57.639Z,8.95
2016-10-20T06:40:57.615Z,8.88
2016-10-20T06:41:57.590Z,8.87
2016-10-20T06:42:58.006Z,8.99
2016-10-20T06:43:57.531Z,8.94
2016-10-20T06:44:57.502Z,8.97
2016-10-20T06:45:57.472Z,8.99
2016-10-20T06:46:57.441Z,9.02
2016-10-20T06:47:57.412Z,9.13
2016-10-20T06:48:57.387Z,9.08
2016-10-20T06:49:57.356Z,9.14
2016-10-20T06:50:57.328Z,9.16
2016-10-20T06:51:57.301Z,9.21
2016-10-20T06:52:57.271Z,9.25
2016-10-20T06:53:57.244Z,9.25
2016-10-20T06:54:57.213Z,9.25
2016-10-20T06:55:57.188Z,9.23
2016-10-20T06:56:57.161Z,9.23
2016-10-20T06:57:57.130Z,9.25
2016-10-20T06:58:57.105Z,9.21
2016-10-20T06:59:57.079Z,9.25
2016-10-20T07:00:57.049Z,9.18
2016-10-20T07:01:57.023Z,9.19
2016-10-20T07:02:56.998Z,9.25
2016-10-20T07:03:56.963Z,9.25
2016-10-20T07:04:56.933Z,9.26
2016-10-20T07:05:56.903Z,9.26
2016-10-20T07:06:56.877Z,9.23
2016-10-20T07:07:56.852Z,9.21
2016-10-20T07:08:56.855Z,9.25
2016-10-20T07:09:56.792Z,9.31
2016-10-20T07:10:56.765Z,9.25
2016-10-20T07:11:56.734Z,9.25
2016-10-20T07:12:56.708Z,9.29
2016-10-20T07:13:56.682Z,9.23
2016-10-20T07:14:56.647Z,9.22
2016-10-20T07:15:56.619Z,9.22
2016-10-20T07:16:56.592Z,9.22
2016-10-20T07:17:56.565Z,9.19
2016-10-20T07:18:56.540Z,9.28
2016-10-20T07:19:56.510Z,9.25
2016-10-20T07:20:56.484Z,9.32
2016-10-20T07:21:56.454Z,9.29
2016-10-20T07:22:56.421Z,9.23
2016-10-20T07:23:56.467Z,9.21
2016-10-20T07:24:56.369Z,9.19
2016-10-20T07:25:56.344Z,9.19
2016-10-20T07:26:56.318Z,9.19
2016-10-20T07:27:56.305Z,9.19
2016-10-20T07:28:56.260Z,9.18
2016-10-20T07:29:56.224Z,9.16
2016-10-20T07:30:56.204Z,9.28
2016-10-20T07:31:56.173Z,9.16
2016-10-20T07:32:56.142Z,9.19
2016-10-20T07:33:56.119Z,9.32
2016-10-20T07:34:56.088Z,9.31
2016-10-20T07:35:56.066Z,9.31
2016-10-20T07:36:56.036Z,9.34
2016-10-20T07:37:56.016Z,9.36
2016-10-20T07:38:55.980Z,9.25
2016-10-20T07:39:55.948Z,9.28
2016-10-20T07:40:55.923Z,9.43
2016-10-20T07:41:56.197Z,9.36
2016-10-20T07:42:55.870Z,9.29
2016-10-20T07:43:56.249Z,9.4
2016-10-20T07:44:55.841Z,9.39
2016-10-20T07:45:55.787Z,9.55
2016-10-20T07:46:55.753Z,9.48
2016-10-20T07:47:55.722Z,9.5
2016-10-20T07:48:55.697Z,9.43
2016-10-20T07:49:55.671Z,9.59
2016-10-20T07:50:55.643Z,9.44
2016-10-20T07:51:55.620Z,9.54
2016-10-20T07:52:55.620Z,9.47
2016-10-20T07:53:55.560Z,9.68
2016-10-20T07:54:55.531Z,9.64
2016-10-20T07:55:55.509Z,9.69
2016-10-20T07:56:55.475Z,9.69
2016-10-20T07:57:55.450Z,9.76
2016-10-20T07:58:55.428Z,9.74
2016-10-20T07:59:55.395Z,9.68
2016-10-20T08:00:55.369Z,9.74
2016-10-20T08:01:55.343Z,9.82
2016-10-20T08:02:55.316Z,9.8
2016-10-20T08:03:55.288Z,9.77
2016-10-20T08:04:55.259Z,9.89
2016-10-20T08:05:55.234Z,9.94
2016-10-20T08:06:55.207Z,9.94
2016-10-20T08:07:55.178Z,9.94
2016-10-20T08:08:55.153Z,10.02
2016-10-20T08:09:55.123Z,9.91
2016-10-20T08:10:55.096Z,9.99
2016-10-20T08:11:55.107Z,10.09
2016-10-20T08:12:55.044Z,10.01
2016-10-20T08:13:55.020Z,10.13
2016-10-20T08:14:54.991Z,10.17
2016-10-20T08:15:54.959Z,10.15
2016-10-20T08:16:54.942Z,10.17
2016-10-20T08:17:54.907Z,10.28
2016-10-20T08:18:54.880Z,10.26
2016-10-20T08:19:54.858Z,10.3
2016-10-20T08:20:54.833Z,10.3
2016-10-20T08:21:54.805Z,10.35
2016-10-20T08:22:54.791Z,10.35
2016-10-20T08:23:54.753Z,10.35
2016-10-20T08:24:54.727Z,10.34
2016-10-20T08:25:54.716Z,10.33
2016-10-20T08:26:54.668Z,10.31
2016-10-20T08:27:54.650Z,10.19
2016-10-20T08:28:54.627Z,10.19
2016-10-20T08:29:54.591Z,10.28
2016-10-20T08:30:54.570Z,10.4
2016-10-20T08:31:54.540Z,10.35
2016-10-20T08:32:54.511Z,10.34
2016-10-20T08:33:54.484Z,10.37
2016-10-20T08:34:54.459Z,10.31
2016-10-20T08:35:54.436Z,10.4
2016-10-20T08:36:54.409Z,10.42
2016-10-20T08:37:54.676Z,10.4
2016-10-20T08:38:54.356Z,10.42
2016-10-20T08:39:54.329Z,10.44
2016-10-20T08:40:54.300Z,10.4
2016-10-20T08:41:54.277Z,10.33
2016-10-20T08:42:54.250Z,10.35
2016-10-20T08:43:54.226Z,10.35
2016-10-20T08:44:54.196Z,10.38
2016-10-20T08:45:54.208Z,10.41
2016-10-20T08:46:54.140Z,10.37
2016-10-20T08:47:54.117Z,10.31
2016-10-20T08:48:54.091Z,10.38
2016-10-20T08:49:54.067Z,10.31
2016-10-20T08:50:54.039Z,10.35
2016-10-20T08:51:54.010Z,10.31
2016-10-20T08:52:53.988Z,10.33
2016-10-20T08:53:53.964Z,10.44
2016-10-20T08:54:53.932Z,10.3
2016-10-20T08:55:53.909Z,10.37
2016-10-20T08:56:53.917Z,10.41
2016-10-20T08:57:53.892Z,10.46
2016-10-20T08:58:53.839Z,10.41
2016-10-20T08:59:53.804Z,10.49
2016-10-20T09:00:53.779Z,10.41
2016-10-20T09:01:53.749Z,10.41
2016-10-20T09:02:53.731Z,10.46
2016-10-20T09:03:53.697Z,10.4
2016-10-20T09:04:54.075Z,10.42
2016-10-20T09:05:53.648Z,10.4
2016-10-20T09:06:53.621Z,10.41
2016-10-20T09:07:53.598Z,10.42
2016-10-20T09:08:53.570Z,10.4
2016-10-20T09:09:53.538Z,10.35
2016-10-20T09:10:54.092Z,10.37
2016-10-20T09:11:53.490Z,10.37
2016-10-20T09:12:53.461Z,10.33
2016-10-20T09:13:53.436Z,10.35
2016-10-20T09:14:53.410Z,10.4
2016-10-20T09:15:53.387Z,10.38
2016-10-20T09:16:53.355Z,10.44
2016-10-20T09:17:53.335Z,10.41
2016-10-20T09:18:53.311Z,10.37
2016-10-20T09:19:53.278Z,10.34
2016-10-20T09:20:53.253Z,10.41
2016-10-20T09:21:53.227Z,10.42
2016-10-20T09:22:53.201Z,10.4
2016-10-20T09:23:53.475Z,10.4
2016-10-20T09:24:53.149Z,10.38
2016-10-20T09:25:53.585Z,10.35
2016-10-20T09:26:53.101Z,10.34
2016-10-20T09:27:53.070Z,10.38
2016-10-20T09:28:53.083Z,10.35
2016-10-20T09:29:53.053Z,10.41
2016-10-20T09:30:52.990Z,10.42
2016-10-20T09:31:52.966Z,10.53
2016-10-20T09:32:52.938Z,10.6
2016-10-20T09:33:52.917Z,10.59
2016-10-20T09:34:52.888Z,10.57
2016-10-20T09:35:52.862Z,10.64
2016-10-20T09:36:52.840Z,10.63
2016-10-20T09:37:52.849Z,10.68
2016-10-20T09:38:52.790Z,10.61
2016-10-20T09:39:52.758Z,10.68
2016-10-20T09:40:52.739Z,10.78
2016-10-20T09:41:52.706Z,10.89
2016-10-20T09:42:52.686Z,10.81
2016-10-20T09:43:52.656Z,10.82
2016-10-20T09:44:52.631Z,10.86
2016-10-20T09:45:52.605Z,10.97
2016-10-20T09:46:52.577Z,10.93
2016-10-20T09:47:52.554Z,11
2016-10-20T09:48:52.529Z,11
2016-10-20T09:49:52.503Z,11.05
2016-10-20T09:50:52.476Z,11.08
2016-10-20T09:51:52.453Z,11.12
2016-10-20T09:52:52.476Z,11.15
2016-10-20T09:53:52.398Z,11.11
2016-10-20T09:54:52.375Z,11.11
2016-10-20T09:55:52.376Z,11.18
2016-10-20T09:56:52.327Z,11.15
2016-10-20T09:57:52.306Z,11.26
2016-10-20T09:58:52.349Z,11.32
2016-10-20T09:59:52.259Z,11.32
2016-10-20T10:00:52.220Z,11.33
2016-10-20T10:01:52.209Z,11.27
2016-10-20T10:02:52.175Z,11.35
2016-10-20T10:03:52.148Z,11.33
2016-10-20T10:04:52.125Z,11.4
2016-10-20T10:05:52.099Z,11.4
2016-10-20T10:06:52.071Z,11.32
2016-10-20T10:07:52.052Z,11.37
2016-10-20T10:08:52.024Z,11.41
2016-10-20T10:09:52.008Z,11.23
2016-10-20T10:10:51.979Z,11.33
2016-10-20T10:11:51.947Z,11.35
2016-10-20T10:12:51.923Z,11.27
2016-10-20T10:13:51.901Z,11.3
2016-10-20T10:14:51.871Z,11.25
2016-10-20T10:15:51.890Z,11.27
2016-10-20T10:16:51.849Z,11.36
2016-10-20T10:17:51.804Z,11.36
2016-10-20T10:18:51.768Z,11.36
2016-10-20T10:19:51.746Z,11.43
2016-10-20T10:20:51.724Z,11.36
2016-10-20T10:21:51.690Z,11.35
2016-10-20T10:22:51.670Z,11.29
2016-10-20T10:23:51.643Z,11.35
2016-10-20T10:24:51.622Z,11.33
2016-10-20T10:25:51.590Z,11.27
2016-10-20T10:26:51.571Z,11.32
2016-10-20T10:27:51.536Z,11.26
2016-10-20T10:28:51.518Z,11.19
2016-10-20T10:29:51.486Z,11.26
2016-10-20T10:30:51.464Z,11.14
2016-10-20T10:31:51.433Z,11.15
2016-10-20T10:32:51.409Z,11.05
2016-10-20T10:33:51.381Z,11.08
2016-10-20T10:34:51.358Z,11.11
2016-10-20T10:35:51.385Z,11.08
2016-10-20T10:36:51.305Z,11.08
2016-10-20T10:37:51.277Z,11.04
2016-10-20T10:38:51.251Z,10.99
2016-10-20T10:39:51.234Z,10.94
2016-10-20T10:40:51.194Z,10.87
2016-10-20T10:41:51.173Z,10.9
2016-10-20T10:42:51.153Z,10.82
2016-10-20T10:43:51.122Z,10.82
2016-10-20T10:44:51.099Z,10.76
2016-10-20T10:45:51.068Z,10.74
2016-10-20T10:46:51.038Z,10.82
2016-10-20T10:47:51.015Z,10.74
2016-10-20T10:48:51.356Z,10.78
2016-10-20T10:49:50.960Z,10.79
2016-10-20T10:50:51.233Z,10.76
2016-10-20T10:51:50.910Z,10.69
2016-10-20T10:52:51.224Z,10.75
2016-10-20T10:53:50.854Z,10.72
2016-10-20T10:54:50.830Z,10.67
2016-10-20T10:55:50.802Z,10.64
2016-10-20T10:56:50.774Z,10.71
2016-10-20T10:57:50.746Z,10.67
2016-10-20T10:58:50.723Z,10.67
2016-10-20T10:59:50.692Z,10.63
2016-10-20T11:00:50.668Z,10.64
2016-10-20T11:01:50.639Z,10.59
2016-10-20T11:02:50.612Z,10.51
2016-10-20T11:03:50.583Z,10.56
2016-10-20T11:04:50.557Z,10.6
2016-10-20T11:05:50.534Z,10.56
2016-10-20T11:06:50.506Z,10.42
2016-10-20T11:07:50.478Z,10.48
2016-10-20T11:08:50.491Z,10.38
2016-10-20T11:09:50.424Z,10.44
2016-10-20T11:10:50.395Z,10.38
2016-10-20T11:11:50.373Z,10.51
2016-10-20T11:12:50.346Z,10.49
2016-10-20T11:13:50.316Z,10.46
2016-10-20T11:14:50.286Z,10.49
2016-10-20T11:15:50.262Z,10.42
2016-10-20T11:16:50.234Z,10.51
2016-10-20T11:17:50.206Z,10.44
2016-10-20T11:18:50.179Z,10.48
2016-10-20T11:19:50.155Z,10.44
2016-10-20T11:20:50.125Z,10.44
2016-10-20T11:21:50.099Z,10.33
2016-10-20T11:22:50.078Z,10.4
2016-10-20T11:23:50.047Z,10.37
2016-10-20T11:24:50.018Z,10.44
2016-10-20T11:25:49.993Z,10.44
2016-10-20T11:26:49.968Z,10.48
2016-10-20T11:27:49.938Z,10.57
2016-10-20T11:28:49.915Z,10.49
2016-10-20T11:29:50.665Z,10.56
2016-10-20T11:30:49.861Z,10.54
2016-10-20T11:31:49.830Z,10.67
2016-10-20T11:32:49.810Z,10.63
2016-10-20T11:33:49.781Z,10.64
2016-10-20T11:34:49.760Z,10.72
2016-10-20T11:35:49.723Z,10.84
2016-10-20T11:36:50.546Z,10.78
2016-10-20T11:37:49.676Z,10.84
2016-10-20T11:38:49.647Z,10.97
2016-10-20T11:39:49.623Z,10.94
2016-10-20T11:40:49.611Z,11.05
2016-10-20T11:41:49.569Z,11.17
2016-10-20T11:42:49.546Z,11.18
2016-10-20T11:43:49.520Z,11.17
2016-10-20T11:44:49.491Z,11.3
2016-10-20T11:45:49.591Z,11.32
2016-10-20T11:46:49.445Z,11.29
2016-10-20T11:47:49.427Z,11.4
2016-10-20T11:48:49.401Z,11.41
2016-10-20T11:49:49.368Z,11.45
2016-10-20T11:50:50.199Z,11.44
2016-10-20T11:51:49.536Z,11.5
2016-10-20T11:52:49.287Z,11.48
2016-10-20T11:53:49.263Z,11.54
2016-10-20T11:54:49.250Z,11.55
2016-10-20T11:55:49.218Z,11.55
2016-10-20T11:56:49.194Z,11.51
2016-10-20T11:57:49.169Z,11.52
2016-10-20T11:58:49.137Z,11.59
2016-10-20T11:59:49.120Z,11.75
2016-10-20T12:00:49.093Z,11.7
2016-10-20T12:01:49.067Z,11.77
2016-10-20T12:02:49.044Z,11.87
2016-10-20T12:03:49.018Z,11.86
2016-10-20T12:04:48.990Z,11.94
2016-10-20T12:05:48.966Z,11.88
2016-10-20T12:06:48.944Z,11.88
2016-10-20T12:07:49.049Z,11.84
2016-10-20T12:08:48.893Z,11.91
2016-10-20T12:09:48.865Z,11.83
2016-10-20T12:10:48.877Z,11.87
2016-10-20T12:11:48.816Z,11.91
2016-10-20T12:12:48.791Z,11.88
2016-10-20T12:13:48.768Z,11.91
2016-10-20T12:14:48.746Z,11.86
2016-10-20T12:15:48.718Z,11.84
2016-10-20T12:16:48.694Z,11.94
2016-10-20T12:17:48.666Z,11.9
2016-10-20T12:18:48.642Z,11.97
2016-10-20T12:19:48.617Z,11.88
2016-10-20T12:20:48.596Z,11.95
2016-10-20T12:21:48.572Z,12.03
2016-10-20T12:22:48.543Z,11.97
2016-10-20T12:23:48.520Z,12.1
2016-10-20T12:24:48.496Z,12.06
2016-10-20T12:25:48.475Z,12.03
2016-10-20T12:26:48.450Z,12.04
2016-10-20T12:27:48.421Z,12.1
2016-10-20T12:28:48.399Z,12.15
2016-10-20T12:29:48.372Z,12.12
2016-10-20T12:30:48.351Z,12.18
2016-10-20T12:31:48.322Z,12.28
2016-10-20T12:32:48.301Z,12.24
2016-10-20T12:33:48.277Z,12.21
2016-10-20T12:34:48.300Z,12.2
2016-10-20T12:35:48.573Z,12.27
2016-10-20T12:36:48.204Z,12.22
2016-10-20T12:37:48.186Z,12.25
2016-10-20T12:38:48.155Z,12.42
2016-10-20T12:39:49.201Z,12.4
2016-10-20T12:40:48.108Z,12.42
2016-10-20T12:41:48.085Z,12.47
2016-10-20T12:42:48.058Z,12.54
2016-10-20T12:43:48.039Z,12.5
2016-10-20T12:44:48.010Z,12.55
2016-10-20T12:45:48.030Z,12.5
2016-10-20T12:46:48.585Z,12.5
2016-10-20T12:47:47.946Z,12.47
2016-10-20T12:48:47.913Z,12.57
2016-10-20T12:49:47.892Z,12.55
2016-10-20T12:50:47.870Z,12.5
2016-10-20T12:51:47.847Z,12.5
2016-10-20T12:52:47.822Z,12.53
2016-10-20T12:53:47.800Z,12.45
2016-10-20T12:54:47.774Z,12.62
2016-10-20T12:55:47.756Z,12.55
2016-10-20T12:56:47.727Z,12.55
2016-10-20T12:57:47.701Z,12.5
2016-10-20T12:58:47.675Z,12.6
2016-10-20T12:59:47.655Z,12.65
2016-10-20T13:00:47.629Z,12.73
2016-10-20T13:01:47.605Z,12.72
2016-10-20T13:02:47.586Z,12.76
2016-10-20T13:03:47.560Z,12.79
2016-10-20T13:04:47.536Z,12.73
2016-10-20T13:05:47.508Z,12.76
2016-10-20T13:06:47.487Z,12.8
2016-10-20T13:07:47.464Z,12.8
2016-10-20T13:08:47.442Z,12.82
2016-10-20T13:09:47.453Z,12.72
2016-10-20T13:10:47.396Z,12.8
2016-10-20T13:11:47.374Z,12.75